createdAt,value
2023-05-24T00:00:31.793Z,102776.22
2023-05-24T00:03:00.088Z,102781.81
2023-05-24T00:05:31.231Z,102771.34
2023-05-24T00:08:00.241Z,102775.38
2023-05-24T00:10:28.166Z,102777.59
2023-05-24T00:12:57.478Z,102777.97
2023-05-24T00:15:25.518Z,102787.19
2023-05-24T00:17:53.503Z,102778.69
2023-05-24T00:20:21.686Z,102774.69
2023-05-24T00:22:49.682Z,102781.13
2023-05-24T00:25:17.680Z,102781.13
2023-05-24T00:27:45.595Z,102779.69
2023-05-24T00:30:15.385Z,102784.41
2023-05-24T00:32:43.401Z,102778.72
2023-05-24T00:35:11.340Z,102786.22
2023-05-24T00:37:41.905Z,102779.69
2023-05-24T00:40:11.103Z,102784.50
2023-05-24T00:42:39.191Z,102776.09
2023-05-24T00:45:08.340Z,102794.19
2023-05-24T00:47:38.333Z,102786.88
2023-05-24T00:50:07.550Z,102780.59
2023-05-24T00:52:36.031Z,102788.59
2023-05-24T00:55:04.110Z,102789.13
2023-05-24T00:57:32.182Z,102790.81
2023-05-24T01:00:00.165Z,102792.78
2023-05-24T01:02:28.585Z,102791.06
2023-05-24T01:04:58.054Z,102789.38
2023-05-24T01:07:28.076Z,102778.78
2023-05-24T01:10:04.673Z,102775.50
2023-05-24T01:12:47.670Z,102772.31
2023-05-24T01:15:19.409Z,102774.50
2023-05-24T01:17:52.800Z,102776.69
2023-05-24T01:20:22.611Z,102773.28
2023-05-24T01:23:19.260Z,102785.56
2023-05-24T01:26:02.039Z,102784.44
2023-05-24T01:28:31.358Z,102777.66
2023-05-24T01:30:59.296Z,102777.75
2023-05-24T01:33:27.266Z,102779.47
2023-05-24T01:35:58.034Z,102779.78
2023-05-24T01:38:26.061Z,102777.50
2023-05-24T01:40:56.884Z,102768.75
2023-05-24T01:43:28.439Z,102755.03
2023-05-24T01:46:02.129Z,102756.84
2023-05-24T01:48:35.373Z,102760.00
2023-05-24T01:51:06.674Z,102754.50
2023-05-24T01:53:35.328Z,102754.00
2023-05-24T01:56:04.208Z,102766.84
2023-05-24T01:58:32.741Z,102759.78
2023-05-24T02:01:02.087Z,102766.19
2023-05-24T02:03:30.130Z,102761.72
2023-05-24T02:05:58.088Z,102760.97
2023-05-24T02:08:26.094Z,102769.97
2023-05-24T02:10:54.049Z,102766.31
2023-05-24T02:13:21.996Z,102760.25
2023-05-24T02:15:51.853Z,102759.41
2023-05-24T02:18:22.642Z,102765.81
2023-05-24T02:20:50.897Z,102764.84
2023-05-24T02:23:18.974Z,102763.25
2023-05-24T02:25:46.962Z,102761.69
2023-05-24T02:28:14.909Z,102766.28
2023-05-24T02:30:44.876Z,102761.41
2023-05-24T02:33:13.274Z,102761.88
2023-05-24T02:35:42.672Z,102778.25
2023-05-24T02:38:10.692Z,102773.16
2023-05-24T02:40:38.651Z,102775.31
2023-05-24T02:43:06.587Z,102771.91
2023-05-24T02:45:34.664Z,102765.06
2023-05-24T02:48:02.655Z,102765.31
2023-05-24T02:50:30.953Z,102763.63
2023-05-24T02:53:00.750Z,102763.63
2023-05-24T02:55:29.138Z,102765.06
2023-05-24T02:57:57.160Z,102766.78
2023-05-24T03:00:26.288Z,102772.75
2023-05-24T03:02:56.904Z,102766.34
2023-05-24T03:05:24.907Z,102772.75
2023-05-24T03:07:52.974Z,102773.59
2023-05-24T03:10:22.452Z,102778.09
2023-05-24T03:12:50.457Z,102777.22
2023-05-24T03:15:18.500Z,102780.25
2023-05-24T03:17:47.472Z,102788.53
2023-05-24T03:20:16.021Z,102783.03
2023-05-24T03:22:44.071Z,102786.03
2023-05-24T03:25:11.951Z,102789.66
2023-05-24T03:27:41.239Z,102787.44
2023-05-24T03:30:10.561Z,102781.16
2023-05-24T03:32:46.943Z,102789.66
2023-05-24T03:35:15.372Z,102787.94
2023-05-24T03:37:43.765Z,102779.00
2023-05-24T03:40:12.181Z,102781.56
2023-05-24T03:42:53.660Z,102791.16
2023-05-24T03:45:38.420Z,102780.25
2023-05-24T03:48:08.053Z,102780.50
2023-05-24T03:50:36.037Z,102774.22
2023-05-24T03:53:04.026Z,102773.22
2023-05-24T03:55:31.947Z,102768.34
2023-05-24T03:58:01.204Z,102769.84
2023-05-24T04:00:29.666Z,102769.03
2023-05-24T04:02:57.648Z,102768.03
2023-05-24T04:05:27.244Z,102768.19
2023-05-24T04:07:55.361Z,102762.63
2023-05-24T04:10:23.949Z,102767.72
2023-05-24T04:12:51.881Z,102772.19
2023-05-24T04:15:21.387Z,102766.88
2023-05-24T04:17:54.989Z,102764.97
2023-05-24T04:20:25.433Z,102764.13
2023-05-24T04:22:53.735Z,102768.59
2023-05-24T04:25:21.689Z,102769.53
2023-05-24T04:27:50.319Z,102779.44
2023-05-24T04:30:18.409Z,102777.13
2023-05-24T04:32:48.689Z,102779.69
2023-05-24T04:35:16.764Z,102783.06
2023-05-24T04:37:44.770Z,102785.00
2023-05-24T04:40:13.720Z,102783.16
2023-05-24T04:42:41.620Z,102780.28
2023-05-24T04:45:10.437Z,102783.06
2023-05-24T04:47:38.349Z,102789.25
2023-05-24T04:50:08.671Z,102786.69
2023-05-24T04:52:37.516Z,102787.53
2023-05-24T04:55:05.996Z,102788.38
2023-05-24T04:57:33.921Z,102785.81
2023-05-24T05:00:02.128Z,102780.50
2023-05-24T05:02:30.088Z,102777.97
2023-05-24T05:04:58.047Z,102775.41
2023-05-24T05:07:29.414Z,102783.06
2023-05-24T05:09:57.593Z,102786.28
2023-05-24T05:12:25.544Z,102783.16
2023-05-24T05:14:53.502Z,102788.66
2023-05-24T05:17:21.758Z,102790.56
2023-05-24T05:19:49.782Z,102791.81
2023-05-24T05:22:17.766Z,102795.53
2023-05-24T05:24:47.088Z,102798.53
2023-05-24T05:27:15.125Z,102803.78
2023-05-24T05:29:43.081Z,102805.56
2023-05-24T05:32:11.279Z,102810.66
2023-05-24T05:34:39.257Z,102817.25
2023-05-24T05:37:07.171Z,102806.72
2023-05-24T05:39:35.139Z,102805.03
2023-05-24T05:42:04.619Z,102803.06
2023-05-24T05:44:32.547Z,102812.56
2023-05-24T05:47:00.463Z,102823.16
2023-05-24T05:49:28.431Z,102813.75
2023-05-24T05:51:56.334Z,102801.66
2023-05-24T05:54:24.321Z,102810.91
2023-05-24T05:56:52.338Z,102814.78
2023-05-24T05:59:21.610Z,102808.72
2023-05-24T06:01:49.819Z,102810.72
2023-05-24T06:04:17.742Z,102808.06
2023-05-24T06:06:49.605Z,102806.47
2023-05-24T06:09:17.854Z,102803.94
2023-05-24T06:11:45.853Z,102803.22
2023-05-24T06:14:18.554Z,102795.09
2023-05-24T06:16:48.156Z,102794.84
2023-05-24T06:19:16.672Z,102798.59
2023-05-24T06:21:48.106Z,102799.81
2023-05-24T06:24:20.593Z,102802.72
2023-05-24T06:26:48.790Z,102806.25
2023-05-24T06:29:16.677Z,102807.78
2023-05-24T06:31:44.685Z,102797.41
2023-05-24T06:34:17.003Z,102802.88
2023-05-24T06:36:47.196Z,102795.09
2023-05-24T06:39:15.333Z,102800.38
2023-05-24T06:41:43.327Z,102795.97
2023-05-24T06:44:11.462Z,102791.28
2023-05-24T06:46:40.046Z,102807.41
2023-05-24T06:49:08.610Z,102800.16
2023-05-24T06:51:38.486Z,102808.91
2023-05-24T06:54:06.755Z,102811.13
2023-05-24T06:56:34.833Z,102807.09
2023-05-24T06:59:02.775Z,102802.69
2023-05-24T07:01:30.867Z,102805.16
2023-05-24T07:03:59.185Z,102798.94
2023-05-24T07:06:27.221Z,102801.28
2023-05-24T07:08:56.534Z,102812.47
2023-05-24T07:11:24.541Z,102811.94
2023-05-24T07:13:52.787Z,102801.41
2023-05-24T07:16:20.846Z,102805.25
2023-05-24T07:18:48.827Z,102823.59
2023-05-24T07:21:16.811Z,102820.06
2023-05-24T07:23:44.776Z,102830.63
2023-05-24T07:26:14.411Z,102822.22
2023-05-24T07:28:42.410Z,102823.38
2023-05-24T07:31:10.439Z,102827.06
2023-05-24T07:33:38.687Z,102826.38
2023-05-24T07:36:08.778Z,102828.38
2023-05-24T07:38:37.168Z,102823.44
2023-05-24T07:41:08.605Z,102828.25
2023-05-24T07:43:38.414Z,102833.38
2023-05-24T07:46:06.661Z,102829.13
2023-05-24T07:48:34.796Z,102833.88
2023-05-24T07:51:05.074Z,102840.13
2023-05-24T07:53:34.217Z,102841.16
2023-05-24T07:56:02.373Z,102833.88
2023-05-24T07:58:30.543Z,102833.78
2023-05-24T08:01:00.366Z,102832.38
2023-05-24T08:03:28.889Z,102831.97
2023-05-24T08:05:57.418Z,102832.38
2023-05-24T08:08:25.752Z,102833.78
2023-05-24T08:10:53.710Z,102836.34
2023-05-24T08:13:21.770Z,102837.34
2023-05-24T08:15:49.757Z,102842.84
2023-05-24T08:18:19.087Z,102849.34
2023-05-24T08:20:47.245Z,102840.16
2023-05-24T08:23:15.443Z,102837.34
2023-05-24T08:25:44.290Z,102844.69
2023-05-24T08:28:12.512Z,102843.00
2023-05-24T08:30:40.776Z,102834.38
2023-05-24T08:33:08.751Z,102840.00
2023-05-24T08:35:38.201Z,102838.47
2023-05-24T08:38:06.177Z,102832.66
2023-05-24T08:40:34.225Z,102835.53
2023-05-24T08:43:02.591Z,102825.06
2023-05-24T08:45:31.254Z,102830.69
2023-05-24T08:48:00.665Z,102831.53
2023-05-24T08:50:28.840Z,102833.88
2023-05-24T08:52:58.199Z,102844.31
2023-05-24T08:55:26.175Z,102835.00
2023-05-24T08:57:54.948Z,102834.03
2023-05-24T09:00:23.906Z,102836.97
2023-05-24T09:02:52.298Z,102834.13
2023-05-24T09:05:22.020Z,102826.72
2023-05-24T09:07:51.107Z,102831.88
2023-05-24T09:10:22.133Z,102831.75
2023-05-24T09:12:54.926Z,102843.69
2023-05-24T09:15:23.078Z,102844.69
2023-05-24T09:17:54.095Z,102827.22
2023-05-24T09:20:24.802Z,102832.59
2023-05-24T09:22:54.484Z,102832.09
2023-05-24T09:25:24.418Z,102839.78
2023-05-24T09:27:52.526Z,102838.78
2023-05-24T09:30:21.177Z,102838.63
2023-05-24T09:32:57.120Z,102843.50
2023-05-24T09:35:26.848Z,102838.91
2023-05-24T09:37:59.944Z,102834.72
2023-05-24T09:40:30.106Z,102833.59
2023-05-24T09:43:09.160Z,102837.91
2023-05-24T09:45:43.025Z,102837.91
2023-05-24T09:48:12.727Z,102836.06
2023-05-24T09:50:41.314Z,102829.56
2023-05-24T09:53:09.764Z,102838.91
2023-05-24T09:55:39.370Z,102824.88
2023-05-24T09:58:09.027Z,102826.22
2023-05-24T10:00:40.177Z,102832.59
2023-05-24T10:03:11.062Z,102843.38
2023-05-24T10:05:39.584Z,102831.63
2023-05-24T10:08:10.947Z,102821.88
2023-05-24T10:10:42.382Z,102829.56
2023-05-24T10:13:11.662Z,102820.50
2023-05-24T10:15:39.699Z,102829.47
2023-05-24T10:18:10.604Z,102815.53
2023-05-24T10:20:41.449Z,102826.25
2023-05-24T10:23:11.027Z,102816.06
2023-05-24T10:25:46.732Z,102822.25
2023-05-24T10:28:14.820Z,102831.94
2023-05-24T10:30:52.323Z,102823.16
2023-05-24T10:33:21.845Z,102825.81
2023-05-24T10:35:50.334Z,102819.44
2023-05-24T10:38:18.931Z,102831.69
2023-05-24T10:40:49.259Z,102809.50
2023-05-24T10:43:20.102Z,102826.56
2023-05-24T10:45:51.677Z,102828.09
2023-05-24T10:48:38.928Z,102822.72
2023-05-24T10:51:33.555Z,102826.16
2023-05-24T10:54:15.927Z,102817.06
2023-05-24T10:56:48.141Z,102816.41
2023-05-24T10:59:30.507Z,102814.59
2023-05-24T11:02:00.797Z,102825.53
2023-05-24T11:04:37.705Z,102824.19
2023-05-24T11:07:09.608Z,102830.97
2023-05-24T11:09:46.139Z,102833.34
2023-05-24T11:12:20.819Z,102816.06
2023-05-24T11:14:52.555Z,102816.91
2023-05-24T11:17:23.118Z,102817.16
2023-05-24T11:19:52.342Z,102810.34
2023-05-24T11:22:21.413Z,102812.00
2023-05-24T11:24:49.426Z,102811.16
2023-05-24T11:27:18.806Z,102817.22
2023-05-24T11:29:48.508Z,102818.53
2023-05-24T11:32:17.125Z,102805.03
2023-05-24T11:34:47.917Z,102810.41
2023-05-24T11:37:18.067Z,102812.50
2023-05-24T11:39:52.046Z,102818.56
2023-05-24T11:42:25.933Z,102813.75
2023-05-24T11:44:54.650Z,102807.72
2023-05-24T11:47:25.406Z,102803.94
2023-05-24T11:49:53.683Z,102809.63
2023-05-24T11:52:23.915Z,102799.25
2023-05-24T11:54:55.298Z,102791.34
2023-05-24T11:57:30.533Z,102800.28
2023-05-24T11:59:59.345Z,102789.81
2023-05-24T12:02:27.585Z,102797.97
2023-05-24T12:04:55.708Z,102792.41
2023-05-24T12:07:24.919Z,102795.03
2023-05-24T12:09:53.291Z,102785.00
2023-05-24T12:12:30.503Z,102790.53
2023-05-24T12:14:58.752Z,102789.59
2023-05-24T12:17:26.878Z,102797.91
2023-05-24T12:19:55.040Z,102793.75
2023-05-24T12:22:28.407Z,102809.25
2023-05-24T12:24:56.456Z,102798.00
2023-05-24T12:27:28.685Z,102800.78
2023-05-24T12:29:56.905Z,102789.53
2023-05-24T12:32:25.019Z,102784.22
2023-05-24T12:34:53.513Z,102776.97
2023-05-24T12:37:21.572Z,102774.09
2023-05-24T12:39:51.755Z,102764.44
2023-05-24T12:42:23.853Z,102777.44
2023-05-24T12:44:54.395Z,102776.13
2023-05-24T12:47:22.477Z,102771.25
2023-05-24T12:49:50.972Z,102775.69
2023-05-24T12:52:18.980Z,102768.19
2023-05-24T12:54:46.969Z,102776.66
2023-05-24T12:57:15.109Z,102773.63
2023-05-24T12:59:43.376Z,102785.91
2023-05-24T13:02:13.490Z,102780.38
2023-05-24T13:04:41.567Z,102781.84
2023-05-24T13:07:09.849Z,102773.44
2023-05-24T13:09:37.868Z,102773.38
2023-05-24T13:12:08.949Z,102768.72
2023-05-24T13:14:37.558Z,102776.03
2023-05-24T13:17:05.731Z,102783.03
2023-05-24T13:19:35.104Z,102777.63
2023-05-24T13:22:03.055Z,102784.03
2023-05-24T13:24:31.059Z,102793.50
2023-05-24T13:26:59.431Z,102782.38
2023-05-24T13:29:39.222Z,102784.47
2023-05-24T13:32:07.824Z,102783.16
2023-05-24T13:34:37.273Z,102777.06
2023-05-24T13:37:05.275Z,102787.56
2023-05-24T13:39:33.303Z,102776.13
2023-05-24T13:42:01.910Z,102772.47
2023-05-24T13:44:30.664Z,102781.19
2023-05-24T13:46:58.751Z,102771.34
2023-05-24T13:49:27.728Z,102763.06
2023-05-24T13:51:58.600Z,102757.72
2023-05-24T13:54:27.817Z,102766.59
2023-05-24T13:56:57.501Z,102770.53
2023-05-24T13:59:25.761Z,102774.66
2023-05-24T14:01:53.758Z,102761.81
2023-05-24T14:04:21.771Z,102762.38
2023-05-24T14:06:49.731Z,102762.88
2023-05-24T14:09:21.103Z,102762.03
2023-05-24T14:11:49.238Z,102764.06
2023-05-24T14:16:51.695Z,102760.34
2023-05-24T14:19:19.806Z,102757.31
2023-05-24T14:21:47.806Z,102754.91
2023-05-24T14:24:15.815Z,102754.16
2023-05-24T14:26:47.478Z,102743.75
2023-05-24T14:29:15.497Z,102745.00
2023-05-24T14:31:43.947Z,102751.19
2023-05-24T14:34:12.118Z,102754.25
2023-05-24T14:36:40.466Z,102753.19
2023-05-24T14:39:08.772Z,102759.63
2023-05-24T14:41:36.776Z,102745.75
2023-05-24T14:44:06.110Z,102736.53
2023-05-24T14:46:34.083Z,102741.59
2023-05-24T14:49:02.707Z,102749.84
2023-05-24T14:51:30.744Z,102742.63
2023-05-24T14:53:58.697Z,102742.47
2023-05-24T14:56:26.607Z,102740.31
2023-05-24T14:58:55.315Z,102729.66
2023-05-24T15:01:24.688Z,102727.44
2023-05-24T15:03:52.835Z,102734.19
2023-05-24T15:06:20.908Z,102723.66
2023-05-24T15:08:48.923Z,102717.75
2023-05-24T15:11:18.716Z,102722.34
2023-05-24T15:13:46.852Z,102716.88
2023-05-24T15:16:15.065Z,102706.41
2023-05-24T15:18:44.548Z,102718.38
2023-05-24T15:21:12.472Z,102717.34
2023-05-24T15:23:40.547Z,102706.47
2023-05-24T15:26:08.794Z,102713.22
2023-05-24T15:28:36.709Z,102707.13
2023-05-24T15:31:04.712Z,102701.88
2023-05-24T15:33:33.263Z,102702.94
2023-05-24T15:36:02.813Z,102709.00
2023-05-24T15:38:31.100Z,102702.94
2023-05-24T15:40:59.118Z,102708.78
2023-05-24T15:43:27.079Z,102711.09
2023-05-24T15:45:55.056Z,102714.47
2023-05-24T15:48:22.944Z,102706.50
2023-05-24T15:53:25.366Z,102699.69
2023-05-24T15:55:55.550Z,102701.53
2023-05-24T15:58:23.987Z,102694.19
2023-05-24T16:00:53.429Z,102698.84
2023-05-24T16:03:21.687Z,102685.94
2023-05-24T16:05:50.537Z,102700.59
2023-05-24T16:08:18.517Z,102694.31
2023-05-24T16:10:49.136Z,102693.28
2023-05-24T16:13:17.206Z,102690.94
2023-05-24T16:15:51.278Z,102696.44
2023-05-24T16:18:21.392Z,102691.81
2023-05-24T16:20:49.691Z,102681.09
2023-05-24T16:23:17.809Z,102681.22
2023-05-24T16:25:47.119Z,102684.13
2023-05-24T16:28:15.148Z,102685.41
2023-05-24T16:30:43.688Z,102675.84
2023-05-24T16:33:11.961Z,102674.22
2023-05-24T16:35:40.085Z,102680.50
2023-05-24T16:38:08.008Z,102677.97
2023-05-24T16:40:35.983Z,102682.94
2023-05-24T16:43:05.429Z,102672.84
2023-05-24T16:45:35.856Z,102680.31
2023-05-24T16:48:03.954Z,102673.25
2023-05-24T16:50:32.036Z,102674.75
2023-05-24T16:53:00.027Z,102680.88
2023-05-24T16:55:27.951Z,102672.63
2023-05-24T16:57:56.097Z,102663.34
2023-05-24T17:00:25.420Z,102680.41
2023-05-24T17:02:54.712Z,102677.31
2023-05-24T17:05:22.814Z,102669.56
2023-05-24T17:07:50.781Z,102671.50
2023-05-24T17:10:19.508Z,102669.97
2023-05-24T17:12:48.529Z,102675.25
2023-05-24T17:15:16.834Z,102687.94
2023-05-24T17:17:46.249Z,102675.53
2023-05-24T17:20:14.552Z,102681.97
2023-05-24T17:22:42.609Z,102681.91
2023-05-24T17:25:10.727Z,102674.47
2023-05-24T17:27:38.674Z,102670.81
2023-05-24T17:30:08.815Z,102670.66
2023-05-24T17:32:36.929Z,102674.97
2023-05-24T17:35:06.781Z,102675.31
2023-05-24T17:37:34.783Z,102676.31
2023-05-24T17:40:02.747Z,102666.09
2023-05-24T17:42:30.668Z,102681.25
2023-05-24T17:44:58.642Z,102674.75
2023-05-24T17:47:26.666Z,102681.44
2023-05-24T17:49:54.699Z,102664.06
2023-05-24T17:52:23.973Z,102674.81
2023-05-24T17:54:51.935Z,102664.56
2023-05-24T17:57:19.837Z,102667.53
2023-05-24T17:59:47.884Z,102670.94
2023-05-24T18:02:16.046Z,102670.22
2023-05-24T18:04:44.129Z,102674.97
2023-05-24T18:07:12.275Z,102666.88
2023-05-24T18:09:41.789Z,102661.34
2023-05-24T18:12:09.768Z,102668.63
2023-05-24T18:14:39.275Z,102657.28
2023-05-24T18:17:09.068Z,102671.22
2023-05-24T18:19:37.666Z,102677.28
2023-05-24T18:22:05.934Z,102662.50
2023-05-24T18:24:33.878Z,102651.84
2023-05-24T18:27:04.052Z,102647.44
2023-05-24T18:29:31.952Z,102652.28
2023-05-24T18:31:59.957Z,102659.59
2023-05-24T18:34:27.964Z,102656.06
2023-05-24T18:36:55.960Z,102630.38
2023-05-24T18:39:23.887Z,102638.72
2023-05-24T18:41:52.332Z,102656.09
2023-05-24T18:44:21.820Z,102672.53
2023-05-24T18:46:50.183Z,102660.41
2023-05-24T18:49:18.215Z,102658.63
2023-05-24T18:51:46.198Z,102668.41
2023-05-24T18:54:14.720Z,102659.03
2023-05-24T18:56:43.240Z,102674.78
2023-05-24T18:59:12.448Z,102673.38
2023-05-24T19:01:42.268Z,102689.53
2023-05-24T19:04:10.365Z,102688.72
2023-05-24T19:06:38.304Z,102693.25
2023-05-24T19:09:06.873Z,102690.69
2023-05-24T19:11:34.870Z,102695.47
2023-05-24T19:14:02.842Z,102676.41
2023-05-24T19:16:30.873Z,102677.78
2023-05-24T19:19:00.301Z,102680.78
2023-05-24T19:21:28.937Z,102665.75
2023-05-24T19:23:56.933Z,102682.38
2023-05-24T19:26:24.884Z,102672.38
2023-05-24T19:28:54.108Z,102681.84
2023-05-24T19:31:24.765Z,102681.00
2023-05-24T19:34:00.470Z,102680.56
2023-05-24T19:36:32.871Z,102684.78
2023-05-24T19:39:01.106Z,102687.31
2023-05-24T19:41:29.007Z,102694.00
2023-05-24T19:43:58.603Z,102694.38
2023-05-24T19:46:26.756Z,102698.25
2023-05-24T19:48:54.995Z,102687.84
2023-05-24T19:51:23.063Z,102695.81
2023-05-24T19:53:52.601Z,102700.78
2023-05-24T19:56:20.778Z,102710.41
2023-05-24T19:58:50.006Z,102698.56
2023-05-24T20:01:18.008Z,102707.78
2023-05-24T20:03:48.590Z,102714.28
2023-05-24T20:06:17.105Z,102721.88
2023-05-24T20:08:45.487Z,102719.19
2023-05-24T20:11:14.942Z,102721.19
2023-05-24T20:13:43.209Z,102723.59
2023-05-24T20:16:11.432Z,102721.22
2023-05-24T20:18:39.372Z,102724.75
2023-05-24T20:21:07.376Z,102723.19
2023-05-24T20:23:35.383Z,102714.44
2023-05-24T20:26:03.375Z,102715.59
2023-05-24T20:28:32.779Z,102731.25
2023-05-24T20:31:01.181Z,102723.31
2023-05-24T20:33:29.557Z,102732.94
2023-05-24T20:35:57.576Z,102739.59
2023-05-24T20:38:25.572Z,102739.28
2023-05-24T20:40:53.532Z,102741.72
2023-05-24T20:43:21.529Z,102734.38
2023-05-24T20:45:51.036Z,102745.97
2023-05-24T20:48:19.157Z,102733.53
2023-05-24T20:50:47.182Z,102743.16
2023-05-24T20:53:15.243Z,102734.13
2023-05-24T20:55:43.453Z,102743.16
2023-05-24T20:58:11.742Z,102748.53
2023-05-24T21:00:40.104Z,102749.63
2023-05-24T21:03:09.891Z,102742.28
2023-05-24T21:05:40.120Z,102742.03
2023-05-24T21:08:08.207Z,102736.66
2023-05-24T21:10:38.007Z,102733.81
2023-05-24T21:13:06.155Z,102740.28
2023-05-24T21:15:34.154Z,102736.09
2023-05-24T21:18:02.143Z,102735.25
2023-05-24T21:20:31.682Z,102748.53
2023-05-24T21:22:59.667Z,102738.47
2023-05-24T21:25:27.582Z,102746.09
2023-05-24T21:27:56.109Z,102743.66
2023-05-24T21:30:24.337Z,102752.19
2023-05-24T21:32:52.352Z,102756.13
2023-05-24T21:35:20.415Z,102742.16
2023-05-24T21:37:49.703Z,102743.94
2023-05-24T21:40:17.764Z,102735.75
2023-05-24T21:42:45.701Z,102738.31
2023-05-24T21:45:13.854Z,102740.13
2023-05-24T21:47:41.839Z,102740.28
2023-05-24T21:50:10.317Z,102746.47
2023-05-24T21:52:39.418Z,102737.16
2023-05-24T21:55:10.077Z,102740.13
2023-05-24T21:57:38.199Z,102733.47
2023-05-24T22:00:06.779Z,102745.78
2023-05-24T22:02:35.071Z,102742.75
2023-05-24T22:05:05.230Z,102737.97
2023-05-24T22:07:33.285Z,102735.69
2023-05-24T22:10:01.251Z,102754.31
2023-05-24T22:12:30.548Z,102748.13
2023-05-24T22:14:58.565Z,102752.75
2023-05-24T22:17:29.120Z,102754.88
2023-05-24T22:19:57.210Z,102750.34
2023-05-24T22:22:25.332Z,102756.00
2023-05-24T22:24:53.264Z,102754.41
2023-05-24T22:27:21.456Z,102750.31
2023-05-24T22:29:50.885Z,102756.53
2023-05-24T22:32:18.857Z,102745.69
2023-05-24T22:34:47.115Z,102749.19
2023-05-24T22:37:16.680Z,102754.72
2023-05-24T22:39:45.094Z,102754.25
2023-05-24T22:42:13.058Z,102758.44
2023-05-24T22:44:40.989Z,102768.00
2023-05-24T22:47:13.944Z,102765.88
2023-05-24T22:49:43.073Z,102759.22
2023-05-24T22:52:11.852Z,102765.34
2023-05-24T22:54:39.801Z,102749.81
2023-05-24T22:57:07.742Z,102762.63
2023-05-24T22:59:35.730Z,102776.50
2023-05-24T23:02:03.745Z,102770.84
2023-05-24T23:04:33.621Z,102767.59
2023-05-24T23:07:01.669Z,102770.16
2023-05-24T23:09:34.118Z,102772.88
2023-05-24T23:12:02.420Z,102786.19
2023-05-24T23:14:31.446Z,102776.41
2023-05-24T23:17:02.641Z,102779.25
2023-05-24T23:19:31.828Z,102780.41
2023-05-24T23:22:03.477Z,102786.09
2023-05-24T23:24:31.491Z,102780.19
2023-05-24T23:26:59.409Z,102786.09
2023-05-24T23:29:27.350Z,102784.34
2023-05-24T23:31:55.498Z,102796.59
2023-05-24T23:34:23.411Z,102801.47
2023-05-24T23:36:51.382Z,102806.22
2023-05-24T23:39:20.786Z,102799.44
2023-05-24T23:41:48.737Z,102805.91
2023-05-24T23:44:16.755Z,102804.19
2023-05-24T23:46:44.774Z,102808.72
2023-05-24T23:49:12.783Z,102807.41
2023-05-24T23:51:40.751Z,102804.97
2023-05-24T23:54:08.723Z,102807.94
2023-05-24T23:56:39.077Z,102807.34
2023-05-24T23:59:07.058Z,102812.56
